Time;durP1;ratioP1;P1;durP2;ratioP2;P2;SDS_P1;SDS_P2;PMS_P1;PMS_P2;Temp;Humidity;BMP_temperature;BMP_pressure;BME280_temperature;BME280_humidity;BME280_pressure;Samples;Min_cycle;Max_cycle;Signal;HPM_P1;HPM_P2
2023/12/29 00:00:27;;;;;;;7.67;2.30;;;11.40;11.60;;;;;;5074049;28;20205;-84
2023/12/29 00:02:53;;;;;;;9.37;2.30;;;11.40;10.40;;;;;;5073649;28;20181;-83
2023/12/29 00:05:19;;;;;;;7.17;2.30;;;11.40;6.20;;;;;;5073246;28;20176;-82
2023/12/29 00:07:44;;;;;;;9.07;2.40;;;11.40;7.30;;;;;;5073425;28;20555;-85
2023/12/29 00:10:10;;;;;;;9.27;2.20;;;11.40;9.30;;;;;;5073629;28;20186;-83
2023/12/29 00:12:36;;;;;;;9.10;2.73;;;11.40;8.50;;;;;;5072697;28;20169;-83
2023/12/29 00:15:02;;;;;;;7.37;2.43;;;11.40;9.40;;;;;;5073358;28;20635;-83
2023/12/29 00:17:28;;;;;;;12.73;2.47;;;11.40;10.00;;;;;;5072665;28;20177;-84
2023/12/29 00:19:53;;;;;;;10.90;3.23;;;11.40;9.00;;;;;;5073320;28;20176;-83
2023/12/29 00:22:19;;;;;;;7.50;2.33;;;11.50;6.60;;;;;;5071926;28;20180;-82
2023/12/29 00:24:45;;;;;;;9.97;2.50;;;11.30;11.40;;;;;;5071997;28;20192;-81
2023/12/29 00:27:11;;;;;;;7.63;2.10;;;11.30;13.50;;;;;;5073137;28;20177;-82
2023/12/29 00:29:36;;;;;;;8.03;2.67;;;11.30;15.90;;;;;;5072875;28;20204;-83
2023/12/29 00:32:02;;;;;;;8.27;2.23;;;11.20;15.40;;;;;;5073020;28;20168;-82
2023/12/29 00:34:28;;;;;;;9.00;2.10;;;11.20;17.70;;;;;;5071957;28;20188;-84
2023/12/29 00:36:54;;;;;;;12.77;2.67;;;11.30;16.90;;;;;;5072616;28;20164;-83
2023/12/29 00:39:28;;;;;;;12.93;2.57;;;11.20;18.80;;;;;;5072775;28;20264;-83
2023/12/29 00:41:55;;;;;;;9.43;2.00;;;11.20;19.60;;;;;;5072988;28;20180;-83
2023/12/29 00:44:20;;;;;;;11.20;2.60;;;11.20;18.70;;;;;;5072567;28;20616;-83
2023/12/29 00:46:46;;;;;;;11.57;3.40;;;11.30;17.00;;;;;;5072055;28;20656;-82
2023/12/29 00:49:12;;;;;;;10.77;3.10;;;11.30;15.50;;;;;;5074294;28;20219;-82
2023/12/29 00:51:41;;;;;;;12.93;2.40;;;11.40;12.40;;;;;;5075256;28;20177;-82
2023/12/29 00:54:07;;;;;;;8.70;2.03;;;11.40;10.70;;;;;;5075595;28;20256;-81
2023/12/29 00:56:33;;;;;;;10.07;2.20;;;11.40;8.70;;;;;;5075560;28;20174;-83
2023/12/29 00:58:58;;;;;;;8.63;2.30;;;11.40;10.70;;;;;;5073400;28;20204;-84
2023/12/29 01:01:24;;;;;;;9.60;2.53;;;11.30;12.00;;;;;;5072251;28;20170;-83
2023/12/29 01:03:54;;;;;;;10.43;2.37;;;11.40;10.80;;;;;;5071967;28;20226;-85
2023/12/29 01:06:20;;;;;;;10.33;2.80;;;11.40;11.60;;;;;;5070438;28;20212;-83
2023/12/29 01:08:45;;;;;;;8.37;2.63;;;11.40;10.40;;;;;;5072179;28;20214;-83
2023/12/29 01:11:11;;;;;;;8.73;2.47;;;11.40;10.30;;;;;;5072719;28;20231;-82
2023/12/29 01:13:37;;;;;;;8.53;2.50;;;11.50;8.00;;;;;;5071983;28;20177;-83
2023/12/29 01:16:03;;;;;;;12.47;2.43;;;11.50;8.70;;;;;;5071780;28;20181;-83
2023/12/29 01:18:28;;;;;;;7.50;2.23;;;11.40;11.20;;;;;;5071659;28;21017;-82
2023/12/29 01:20:54;;;;;;;11.93;2.53;;;11.50;12.80;;;;;;5071123;28;20176;-82
2023/12/29 01:23:20;;;;;;;8.73;2.00;;;11.50;12.50;;;;;;5071983;28;20185;-82
2023/12/29 01:25:45;;;;;;;12.00;2.17;;;11.50;11.20;;;;;;5071678;28;20593;-82
2023/12/29 01:28:11;;;;;;;13.27;2.67;;;11.40;11.50;;;;;;5071794;28;20200;-83
2023/12/29 01:30:37;;;;;;;11.13;2.47;;;11.40;12.60;;;;;;5071648;28;20224;-83
2023/12/29 01:33:03;;;;;;;10.37;2.33;;;11.40;14.80;;;;;;5071559;28;20203;-84
2023/12/29 01:35:28;;;;;;;10.67;3.40;;;11.40;16.10;;;;;;5071284;28;20705;-81
2023/12/29 01:37:56;;;;;;;7.13;2.10;;;11.30;17.10;;;;;;5071441;28;20164;-81
2023/12/29 01:40:22;;;;;;;7.87;2.53;;;11.30;16.20;;;;;;5071921;28;20230;-83
2023/12/29 01:42:49;;;;;;;9.03;2.10;;;11.30;17.40;;;;;;5071439;28;20178;-83
2023/12/29 01:45:25;;;;;;;7.53;2.47;;;11.40;15.60;;;;;;5071479;28;20182;-83
2023/12/29 01:47:52;;;;;;;12.10;2.60;;;11.40;13.50;;;;;;5070965;28;20173;-86
2023/12/29 01:50:23;;;;;;;11.23;2.73;;;11.40;13.30;;;;;;5070289;28;20181;-83
2023/12/29 01:52:50;;;;;;;11.20;2.07;;;11.40;13.90;;;;;;5071715;28;20169;-82
2023/12/29 01:55:19;;;;;;;7.67;2.17;;;11.40;11.00;;;;;;5071383;28;20265;-83
2023/12/29 01:57:47;;;;;;;12.10;2.30;;;11.50;10.90;;;;;;5072064;28;20180;-82
2023/12/29 02:00:13;;;;;;;8.53;2.10;;;11.40;13.20;;;;;;5070604;28;20172;-82
2023/12/29 02:02:39;;;;;;;6.20;1.67;;;11.50;13.70;;;;;;5071069;28;20169;-82
2023/12/29 02:05:06;;;;;;;8.67;2.53;;;11.50;9.80;;;;;;5070565;28;20196;-82
2023/12/29 02:07:32;;;;;;;16.10;2.77;;;11.40;11.80;;;;;;5071122;28;20241;-85
2023/12/29 02:09:59;;;;;;;12.57;2.50;;;11.50;13.40;;;;;;5071295;28;20552;-82
2023/12/29 02:12:25;;;;;;;10.17;1.97;;;11.40;13.70;;;;;;5071568;28;20177;-82
2023/12/29 02:14:52;;;;;;;7.60;2.03;;;11.50;13.80;;;;;;5070760;28;20178;-82
2023/12/29 02:17:27;;;;;;;10.83;2.60;;;11.50;10.60;;;;;;5071051;28;20183;-83
2023/12/29 02:19:54;;;;;;;8.00;2.43;;;11.50;12.20;;;;;;5072229;28;20206;-82
2023/12/29 02:22:19;;;;;;;10.17;2.90;;;11.50;12.20;;;;;;5071552;28;20181;-82
2023/12/29 02:24:51;;;;;;;9.67;2.73;;;11.50;12.50;;;;;;5071471;28;20194;-82
2023/12/29 02:27:39;;;;;;;8.27;2.17;;;11.40;14.10;;;;;;5072633;28;20177;-82
2023/12/29 02:30:30;;;;;;;6.97;2.00;;;11.30;17.30;;;;;;5071676;28;20223;-82
2023/12/29 02:33:01;;;;;;;7.67;2.13;;;11.40;16.60;;;;;;5070881;28;20203;-83
2023/12/29 02:35:35;;;;;;;11.33;2.20;;;11.50;16.00;;;;;;5071198;28;20575;-83
2023/12/29 02:38:02;;;;;;;8.83;2.03;;;11.40;15.30;;;;;;5072041;28;20160;-83
2023/12/29 02:40:28;;;;;;;10.50;2.07;;;11.40;16.60;;;;;;5071198;28;20182;-82
2023/12/29 02:42:53;;;;;;;11.73;2.20;;;11.40;18.30;;;;;;5071223;28;20546;-81
2023/12/29 02:45:19;;;;;;;10.83;2.10;;;11.40;21.60;;;;;;5070822;28;20172;-82
2023/12/29 02:47:45;;;;;;;10.00;2.37;;;11.40;18.20;;;;;;5070758;28;20641;-83
2023/12/29 02:50:11;;;;;;;10.27;2.00;;;11.40;17.50;;;;;;5071233;28;20209;-84
2023/12/29 02:52:37;;;;;;;8.10;2.77;;;11.50;17.70;;;;;;5070933;28;20298;-82
2023/12/29 02:55:03;;;;;;;6.27;1.80;;;11.40;20.10;;;;;;5070854;28;20177;-83
2023/12/29 02:57:29;;;;;;;8.97;2.00;;;11.40;17.80;;;;;;5070783;28;20173;-86
2023/12/29 02:59:56;;;;;;;7.67;2.27;;;11.40;20.30;;;;;;5071344;28;20723;-82
2023/12/29 03:02:22;;;;;;;7.23;2.10;;;11.40;20.90;;;;;;5070816;28;20169;-83
2023/12/29 03:04:48;;;;;;;6.50;1.90;;;11.40;17.60;;;;;;5071142;28;20261;-82
2023/12/29 03:07:14;;;;;;;8.43;1.90;;;11.50;17.10;;;;;;5070894;28;20704;-82
2023/12/29 03:09:39;;;;;;;15.67;2.53;;;11.40;16.20;;;;;;5072262;28;20210;-82
2023/12/29 03:12:06;;;;;;;8.60;2.20;;;11.40;19.40;;;;;;5070998;28;20263;-83
2023/12/29 03:14:32;;;;;;;6.27;2.33;;;11.40;21.00;;;;;;5071008;28;20185;-82
2023/12/29 03:16:58;;;;;;;9.60;2.20;;;11.40;21.00;;;;;;5071018;28;20230;-81
2023/12/29 03:19:24;;;;;;;8.83;2.00;;;11.30;23.80;;;;;;5073780;28;20177;-82
2023/12/29 03:21:50;;;;;;;9.80;2.20;;;11.30;22.60;;;;;;5074663;28;20180;-83
2023/12/29 03:24:16;;;;;;;11.17;2.30;;;11.40;21.90;;;;;;5074401;28;20722;-82
2023/12/29 03:26:41;;;;;;;10.27;2.27;;;11.30;20.20;;;;;;5073899;28;20172;-81
2023/12/29 03:29:07;;;;;;;11.67;2.00;;;11.30;22.60;;;;;;5073210;28;20291;-82
2023/12/29 03:31:33;;;;;;;10.77;2.10;;;11.20;24.70;;;;;;5074250;28;20649;-82
2023/12/29 03:33:58;;;;;;;7.40;2.17;;;11.30;24.60;;;;;;5074263;28;20176;-82
2023/12/29 03:36:24;;;;;;;11.13;2.30;;;11.30;22.10;;;;;;5073883;28;20180;-82
2023/12/29 03:38:50;;;;;;;10.30;2.47;;;11.30;22.40;;;;;;5073989;28;20687;-83
2023/12/29 03:41:15;;;;;;;10.70;2.53;;;11.30;25.00;;;;;;5074097;28;20251;-82
2023/12/29 03:43:41;;;;;;;8.00;1.90;;;11.20;25.40;;;;;;5073790;28;20545;-84
2023/12/29 03:46:17;;;;;;;10.87;2.53;;;11.10;28.20;;;;;;5074135;28;20295;-82
2023/12/29 03:48:43;;;;;;;14.53;2.77;;;11.10;29.70;;;;;;5074477;28;20799;-82
2023/12/29 03:51:08;;;;;;;10.10;2.40;;;11.10;29.50;;;;;;5073942;28;20264;-82
2023/12/29 03:53:34;;;;;;;9.10;2.33;;;11.10;30.50;;;;;;5073499;28;20173;-81
2023/12/29 03:56:07;;;;;;;11.90;2.80;;;11.20;29.60;;;;;;5073903;28;20516;-81
2023/12/29 03:58:33;;;;;;;8.83;2.10;;;11.10;31.30;;;;;;5073705;28;20199;-84
2023/12/29 04:00:59;;;;;;;11.57;2.57;;;11.10;29.70;;;;;;5075029;28;20632;-83
2023/12/29 04:03:25;;;;;;;7.53;2.20;;;11.10;32.10;;;;;;5073481;28;20174;-81
2023/12/29 04:05:50;;;;;;;8.70;2.70;;;11.10;32.60;;;;;;5073716;28;20569;-82
2023/12/29 04:08:16;;;;;;;12.30;2.33;;;11.10;32.00;;;;;;5072891;28;20210;-81
2023/12/29 04:10:42;;;;;;;9.90;2.30;;;11.00;36.20;;;;;;5074173;28;20204;-82
2023/12/29 04:13:07;;;;;;;6.83;1.97;;;10.90;42.80;;;;;;5073342;28;20211;-82
2023/12/29 04:15:33;;;;;;;8.30;2.33;;;10.90;44.10;;;;;;5073517;28;20608;-82
2023/12/29 04:17:59;;;;;;;10.47;2.63;;;10.80;45.10;;;;;;5072946;28;20202;-82
2023/12/29 04:20:25;;;;;;;9.77;2.53;;;10.80;46.30;;;;;;5073485;28;20529;-82
2023/12/29 04:22:51;;;;;;;8.97;2.40;;;10.80;47.00;;;;;;5072097;28;20183;-81
2023/12/29 04:25:16;;;;;;;8.23;2.13;;;10.80;48.60;;;;;;5074389;28;20189;-82
2023/12/29 04:27:42;;;;;;;10.80;2.30;;;10.80;46.80;;;;;;5072052;28;20630;-82
2023/12/29 04:30:08;;;;;;;12.20;2.40;;;10.80;50.50;;;;;;5071427;28;20699;-82
2023/12/29 04:32:34;;;;;;;11.37;2.33;;;10.80;53.00;;;;;;5072818;28;20184;-82
2023/12/29 04:35:00;;;;;;;9.97;2.63;;;10.90;48.80;;;;;;5073181;28;20177;-82
2023/12/29 04:37:25;;;;;;;12.47;2.70;;;10.80;50.10;;;;;;5073125;28;20178;-81
2023/12/29 04:39:51;;;;;;;9.57;2.43;;;10.80;53.30;;;;;;5072921;28;20176;-82
2023/12/29 04:42:18;;;;;;;11.57;2.27;;;10.80;55.00;;;;;;5072937;28;20628;-83
2023/12/29 04:44:44;;;;;;;11.20;3.20;;;10.90;53.50;;;;;;5072466;28;20265;-83
2023/12/29 04:47:09;;;;;;;9.47;2.33;;;10.90;52.50;;;;;;5073109;28;20189;-82
2023/12/29 04:49:35;;;;;;;11.63;2.40;;;10.90;49.00;;;;;;5071682;28;20209;-83
2023/12/29 04:52:01;;;;;;;9.77;2.70;;;10.90;51.10;;;;;;5072947;28;20172;-82
2023/12/29 04:54:27;;;;;;;9.03;2.30;;;10.60;55.60;;;;;;5072731;28;20195;-81
2023/12/29 04:56:53;;;;;;;10.63;3.00;;;10.70;60.10;;;;;;5073382;28;20181;-82
2023/12/29 04:59:18;;;;;;;8.73;2.47;;;10.70;59.20;;;;;;5071356;28;20327;-83
2023/12/29 05:01:44;;;;;;;11.07;2.57;;;10.80;58.40;;;;;;5072351;28;20210;-81
2023/12/29 05:04:10;;;;;;;9.93;2.73;;;10.80;57.90;;;;;;5070690;28;20173;-82
2023/12/29 05:06:36;;;;;;;11.43;2.40;;;10.80;57.20;;;;;;5071952;28;20175;-83
2023/12/29 05:09:02;;;;;;;10.73;2.57;;;10.70;60.30;;;;;;5072439;28;20267;-82
2023/12/29 05:11:28;;;;;;;12.63;2.60;;;10.70;61.90;;;;;;5072163;28;20180;-82
2023/12/29 05:13:54;;;;;;;9.93;2.73;;;10.70;63.40;;;;;;5071352;28;20176;-83
2023/12/29 05:16:20;;;;;;;11.47;2.90;;;10.80;63.50;;;;;;5073112;28;20168;-83
2023/12/29 05:18:45;;;;;;;12.83;2.50;;;10.80;63.50;;;;;;5073541;28;20571;-82
2023/12/29 05:21:15;;;;;;;8.67;2.57;;;10.80;62.10;;;;;;5073044;28;20573;-82
2023/12/29 05:23:41;;;;;;;8.13;2.40;;;10.80;62.10;;;;;;5072046;28;20652;-82
2023/12/29 05:26:07;;;;;;;6.83;2.33;;;10.80;63.10;;;;;;5070932;28;20188;-81
2023/12/29 05:28:33;;;;;;;9.13;2.10;;;10.80;65.70;;;;;;5070809;28;20660;-81
2023/12/29 05:31:03;;;;;;;10.60;2.70;;;10.70;67.30;;;;;;5071663;28;20180;-81
2023/12/29 05:33:29;;;;;;;14.03;3.00;;;10.80;67.40;;;;;;5072577;28;20644;-82
2023/12/29 05:35:54;;;;;;;11.03;2.60;;;10.80;63.20;;;;;;5072881;28;20630;-81
2023/12/29 05:38:20;;;;;;;9.50;2.80;;;10.70;67.70;;;;;;5072373;28;20176;-83
2023/12/29 05:40:46;;;;;;;11.33;2.60;;;10.70;68.00;;;;;;5073222;28;20199;-81
2023/12/29 05:43:11;;;;;;;10.23;2.73;;;10.70;70.40;;;;;;5072559;28;20695;-82
2023/12/29 05:45:37;;;;;;;13.83;2.50;;;10.70;68.70;;;;;;5071172;28;20185;-82
2023/12/29 05:48:03;;;;;;;11.97;2.60;;;10.70;70.90;;;;;;5071733;28;20263;-81
2023/12/29 05:50:29;;;;;;;8.63;2.33;;;10.70;73.40;;;;;;5070640;28;20219;-81
2023/12/29 05:52:54;;;;;;;11.63;2.60;;;10.70;71.60;;;;;;5071614;28;20177;-81
2023/12/29 05:55:20;;;;;;;7.47;2.90;;;10.70;71.50;;;;;;5072266;28;20689;-81
2023/12/29 05:57:46;;;;;;;13.27;2.87;;;10.70;73.80;;;;;;5070724;28;20536;-82
2023/12/29 06:00:14;;;;;;;14.53;3.47;;;10.70;77.30;;;;;;5071418;28;20222;-81
2023/12/29 06:02:43;;;;;;;10.50;2.80;;;10.80;80.10;;;;;;5071468;28;20632;-81
2023/12/29 06:05:12;;;;;;;12.70;2.77;;;10.80;86.80;;;;;;5071672;28;20178;-81
2023/12/29 06:07:38;;;;;;;11.03;2.60;;;10.60;95.00;;;;;;5071485;28;20679;-82
2023/12/29 06:10:04;;;;;;;10.77;2.43;;;10.50;99.90;;;;;;5071148;28;20215;-81
2023/12/29 06:12:30;;;;;;;12.50;3.10;;;10.50;99.90;;;;;;5071054;28;20225;-81
2023/12/29 06:14:56;;;;;;;8.10;2.63;;;10.40;99.90;;;;;;5071996;28;20176;-82
2023/12/29 06:17:21;;;;;;;10.90;2.60;;;10.50;99.90;;;;;;5070473;28;20723;-82
2023/12/29 06:19:47;;;;;;;12.00;2.50;;;10.50;99.90;;;;;;5070982;28;20186;-82
2023/12/29 06:22:14;;;;;;;13.17;2.77;;;10.40;99.90;;;;;;5071454;28;20770;-82
2023/12/29 06:24:40;;;;;;;9.70;2.63;;;10.40;99.90;;;;;;5070398;28;20194;-81
2023/12/29 06:27:08;;;;;;;8.03;2.40;;;10.40;99.90;;;;;;5072278;28;20234;-82
2023/12/29 06:29:34;;;;;;;7.33;2.13;;;10.40;99.90;;;;;;5072655;28;20249;-81
2023/12/29 06:31:59;;;;;;;11.87;2.20;;;10.30;99.90;;;;;;5071055;28;20172;-81
2023/12/29 06:34:25;;;;;;;9.33;2.43;;;10.30;99.90;;;;;;5069644;28;20175;-81
2023/12/29 06:36:51;;;;;;;10.43;2.53;;;10.30;99.90;;;;;;5070925;28;20214;-81
2023/12/29 06:39:16;;;;;;;11.90;2.90;;;10.30;99.90;;;;;;5070893;28;20221;-81
2023/12/29 06:41:42;;;;;;;10.40;2.20;;;10.30;99.90;;;;;;5070491;28;20173;-81
2023/12/29 06:44:08;;;;;;;11.33;2.63;;;10.30;99.90;;;;;;5071765;28;20169;-82
2023/12/29 06:46:33;;;;;;;13.97;2.57;;;10.30;99.90;;;;;;5069896;28;20172;-82
2023/12/29 06:48:59;;;;;;;8.10;2.00;;;10.30;99.90;;;;;;5070597;28;20208;-82
2023/12/29 06:51:25;;;;;;;12.07;2.50;;;10.30;99.90;;;;;;5070506;28;20305;-82
2023/12/29 06:53:51;;;;;;;7.07;2.10;;;10.40;99.90;;;;;;5073137;28;20180;-81
2023/12/29 06:56:17;;;;;;;8.23;2.20;;;10.40;99.90;;;;;;5074562;28;20609;-82
2023/12/29 06:58:44;;;;;;;10.57;2.40;;;10.40;99.90;;;;;;5073640;28;20208;-81
2023/12/29 07:01:10;;;;;;;10.77;2.73;;;10.40;99.90;;;;;;5074656;28;20172;-82
2023/12/29 07:03:35;;;;;;;11.90;2.43;;;10.50;99.90;;;;;;5075969;28;20537;-82
2023/12/29 07:06:02;;;;;;;8.57;2.33;;;10.40;99.90;;;;;;5075642;28;20168;-82
2023/12/29 07:08:28;;;;;;;10.17;3.13;;;10.40;99.90;;;;;;5075183;28;20235;-82
2023/12/29 07:10:53;;;;;;;10.53;2.53;;;10.40;99.90;;;;;;5082210;28;20179;-80
2023/12/29 07:13:19;;;;;;;8.67;2.03;;;10.40;99.90;;;;;;5083101;28;20218;-82
2023/12/29 07:15:46;;;;;;;8.83;2.60;;;10.40;99.90;;;;;;5073364;28;20827;-81
2023/12/29 07:18:12;;;;;;;8.37;2.47;;;10.30;99.90;;;;;;5090820;28;20203;-79
2023/12/29 07:20:38;;;;;;;11.63;2.50;;;10.30;99.90;;;;;;5077591;28;20211;-83
2023/12/29 07:23:03;;;;;;;10.73;2.23;;;10.40;99.90;;;;;;5091826;28;20806;-83
2023/12/29 07:25:29;;;;;;;7.70;2.50;;;10.40;99.90;;;;;;5066763;28;20217;-83
2023/12/29 07:27:55;;;;;;;6.93;2.07;;;10.40;99.90;;;;;;5061800;28;20204;-82
2023/12/29 07:30:20;;;;;;;10.30;2.60;;;10.40;99.90;;;;;;5066970;28;20208;-86
2023/12/29 07:32:46;;;;;;;9.50;2.47;;;10.40;99.90;;;;;;5070799;28;20184;-84
2023/12/29 07:35:15;;;;;;;11.03;3.10;;;10.40;99.90;;;;;;5065532;28;20183;-85
2023/12/29 07:37:41;;;;;;;15.70;3.30;;;10.40;99.90;;;;;;5074103;28;20176;-86
2023/12/29 07:40:08;;;;;;;9.80;2.90;;;10.40;99.90;;;;;;5073914;28;20203;-86
2023/12/29 07:42:33;;;;;;;8.17;2.70;;;10.40;99.90;;;;;;5073879;28;20180;-85
2023/12/29 07:44:59;;;;;;;9.60;2.30;;;10.40;99.90;;;;;;5074227;28;20543;-84
2023/12/29 07:47:25;;;;;;;8.73;2.60;;;10.40;99.90;;;;;;5073592;28;20258;-87
2023/12/29 07:49:51;;;;;;;11.77;2.70;;;10.40;99.90;;;;;;5074651;28;20222;-86
2023/12/29 07:52:17;;;;;;;13.17;3.67;;;10.40;99.90;;;;;;5073296;28;20176;-87
2023/12/29 07:54:42;;;;;;;8.43;2.40;;;10.50;99.90;;;;;;5068411;28;20191;-86
2023/12/29 07:57:08;;;;;;;10.50;2.93;;;10.50;99.90;;;;;;5055979;28;20168;-87
2023/12/29 07:59:34;;;;;;;13.10;3.03;;;10.40;99.90;;;;;;5054147;28;20207;-84
2023/12/29 08:02:00;;;;;;;10.03;2.47;;;10.40;99.90;;;;;;5053943;28;20669;-84
2023/12/29 08:04:26;;;;;;;8.27;2.77;;;10.50;99.90;;;;;;5053484;28;20209;-84
2023/12/29 08:06:51;;;;;;;10.87;2.90;;;10.50;99.90;;;;;;5053731;28;20177;-84
2023/12/29 08:09:17;;;;;;;9.97;2.30;;;10.50;99.90;;;;;;5054366;28;20291;-86
2023/12/29 08:11:43;;;;;;;5.73;1.97;;;10.40;99.90;;;;;;5053263;28;20562;-84
2023/12/29 08:14:08;;;;;;;8.30;2.23;;;10.50;99.90;;;;;;5053347;28;20185;-85
2023/12/29 08:16:40;;;;;;;10.53;2.73;;;10.40;99.90;;;;;;5053709;28;20181;-83
2023/12/29 08:19:06;;;;;;;8.60;2.43;;;10.40;99.90;;;;;;5053240;28;20179;-84
2023/12/29 08:21:32;;;;;;;10.17;2.67;;;10.40;99.90;;;;;;5053575;28;20184;-84
2023/12/29 08:23:58;;;;;;;11.00;2.47;;;10.40;99.90;;;;;;5052256;28;20264;-85
2023/12/29 08:26:23;;;;;;;12.03;2.70;;;10.40;99.90;;;;;;5053600;28;20185;-85
2023/12/29 08:28:49;;;;;;;8.97;2.30;;;10.40;99.90;;;;;;5052012;28;20567;-84
2023/12/29 08:31:16;;;;;;;10.17;2.47;;;10.50;99.90;;;;;;5052955;28;20169;-84
2023/12/29 08:33:42;;;;;;;13.90;2.30;;;10.60;99.90;;;;;;5053311;28;20664;-84
2023/12/29 08:36:08;;;;;;;10.77;2.70;;;10.60;99.90;;;;;;5053128;28;20181;-85
2023/12/29 08:38:33;;;;;;;8.50;2.37;;;10.60;99.90;;;;;;5052774;28;20260;-85
2023/12/29 08:40:59;;;;;;;8.47;2.40;;;10.60;99.90;;;;;;5052345;28;20334;-84
2023/12/29 08:43:26;;;;;;;9.07;2.63;;;10.60;99.90;;;;;;5052829;28;20661;-84
2023/12/29 08:45:52;;;;;;;9.07;2.23;;;10.70;99.90;;;;;;5052902;28;20261;-86
2023/12/29 08:48:17;;;;;;;10.00;2.10;;;10.70;99.90;;;;;;5054081;28;20239;-85
2023/12/29 08:50:43;;;;;;;8.07;2.17;;;10.80;99.90;;;;;;5052838;28;20188;-85
2023/12/29 08:53:09;;;;;;;12.30;2.77;;;10.80;99.90;;;;;;5052282;28;20173;-85
2023/12/29 08:55:35;;;;;;;8.93;2.27;;;10.80;99.90;;;;;;5052904;28;20177;-85
2023/12/29 08:58:01;;;;;;;8.10;2.27;;;10.90;99.90;;;;;;5052646;28;20626;-85
2023/12/29 09:00:27;;;;;;;9.60;2.23;;;10.90;99.90;;;;;;5071874;28;20209;-84
2023/12/29 09:02:54;;;;;;;8.93;2.30;;;10.90;99.90;;;;;;5068387;28;20186;-84
2023/12/29 09:05:19;;;;;;;10.07;2.73;;;10.90;99.90;;;;;;5054759;28;20185;-85
2023/12/29 09:07:45;;;;;;;11.10;3.03;;;10.90;99.90;;;;;;5070546;28;20195;-85
2023/12/29 09:10:12;;;;;;;8.60;2.80;;;10.90;99.90;;;;;;5072509;28;20252;-84
2023/12/29 09:12:39;;;;;;;7.60;2.20;;;10.90;99.90;;;;;;5072751;28;20270;-86
2023/12/29 09:15:06;;;;;;;8.33;2.30;;;11.00;99.90;;;;;;5071326;28;20629;-84
2023/12/29 09:17:31;;;;;;;10.07;2.30;;;11.00;99.90;;;;;;5065577;28;20193;-85
2023/12/29 09:19:57;;;;;;;11.30;3.23;;;11.00;99.90;;;;;;5052442;28;20645;-85
2023/12/29 09:22:23;;;;;;;9.53;2.10;;;11.00;99.90;;;;;;5052359;28;20648;-85
2023/12/29 09:24:48;;;;;;;11.20;2.43;;;11.00;99.90;;;;;;5052302;28;20266;-85
2023/12/29 09:27:14;;;;;;;6.93;2.27;;;10.90;99.90;;;;;;5052124;28;20263;-86
2023/12/29 09:29:40;;;;;;;8.87;2.63;;;10.90;99.90;;;;;;5053378;28;20216;-83
2023/12/29 09:32:06;;;;;;;8.83;2.33;;;10.90;99.90;;;;;;5051885;28;20185;-84
2023/12/29 09:34:32;;;;;;;8.27;3.03;;;10.80;99.90;;;;;;5051281;28;20268;-83
2023/12/29 09:36:57;;;;;;;12.97;3.07;;;10.80;99.90;;;;;;5051773;28;20271;-86
2023/12/29 09:39:23;;;;;;;10.97;2.50;;;10.80;99.90;;;;;;5051126;28;20177;-84
2023/12/29 09:41:52;;;;;;;10.73;2.60;;;10.90;99.90;;;;;;5053147;28;20706;-85
2023/12/29 09:44:21;;;;;;;13.97;5.97;;;11.00;99.90;;;;;;5056949;28;20177;-84
2023/12/29 09:46:54;;;;;;;9.70;2.53;;;10.90;99.90;;;;;;5060630;28;20664;-84
2023/12/29 09:49:20;;;;;;;5.37;2.40;;;10.90;99.90;;;;;;5059737;28;20232;-84
2023/12/29 09:51:46;;;;;;;8.60;2.73;;;10.90;99.90;;;;;;5059592;28;20633;-84
2023/12/29 09:54:13;;;;;;;8.57;2.20;;;11.00;99.90;;;;;;5065640;28;20195;-84
2023/12/29 09:56:39;;;;;;;8.47;2.53;;;11.00;99.90;;;;;;5060857;28;20294;-85
2023/12/29 09:59:09;;;;;;;7.67;2.40;;;11.10;99.90;;;;;;5059384;28;20185;-83
2023/12/29 10:01:36;;;;;;;8.03;2.20;;;11.00;99.90;;;;;;5063677;28;20176;-88
2023/12/29 10:04:02;;;;;;;8.30;2.87;;;11.10;99.90;;;;;;5051846;28;20178;-82
2023/12/29 10:06:33;;;;;;;6.40;2.57;;;11.10;99.90;;;;;;5052431;28;20177;-83
2023/12/29 10:09:02;;;;;;;10.37;2.87;;;11.20;99.90;;;;;;5062038;28;20209;-85
2023/12/29 10:11:28;;;;;;;8.70;2.50;;;11.20;99.90;;;;;;5062408;28;20173;-84
2023/12/29 10:13:56;;;;;;;7.60;2.57;;;11.20;99.90;;;;;;5061257;28;20179;-83
2023/12/29 10:16:41;;;;;;;7.77;2.60;;;11.20;99.90;;;;;;5061465;28;20197;-84
2023/12/29 10:19:15;;;;;;;12.10;2.60;;;11.20;99.90;;;;;;5055106;28;20536;-85
2023/12/29 10:21:58;;;;;;;7.93;2.20;;;11.20;99.90;;;;;;5066773;28;20165;-85
2023/12/29 10:24:24;;;;;;;6.23;2.13;;;11.30;99.90;;;;;;5059620;28;20695;-85
2023/12/29 10:26:52;;;;;;;9.23;2.30;;;11.40;99.90;;;;;;5061481;28;20168;-87
2023/12/29 10:29:20;;;;;;;9.37;2.33;;;11.30;99.90;;;;;;5061024;28;20218;-85
2023/12/29 10:31:46;;;;;;;7.90;2.60;;;11.30;99.90;;;;;;5053730;28;20172;-84
2023/12/29 10:34:29;;;;;;;8.23;2.27;;;11.40;99.90;;;;;;5055391;28;20176;-83
2023/12/29 10:36:56;;;;;;;6.13;1.43;;;11.40;99.90;;;;;;5054921;28;20169;-84
2023/12/29 10:39:22;;;;;;;6.73;2.17;;;11.40;99.90;;;;;;5055240;28;20205;-84
2023/12/29 10:41:48;;;;;;;8.83;2.20;;;11.40;99.90;;;;;;5055128;28;20177;-85
2023/12/29 10:44:13;;;;;;;6.30;2.13;;;11.50;99.90;;;;;;5055357;28;20228;-85
2023/12/29 10:46:39;;;;;;;6.47;2.30;;;11.40;99.90;;;;;;5054783;28;20176;-84
2023/12/29 10:49:13;;;;;;;8.30;2.73;;;11.50;99.90;;;;;;5054860;28;20708;-84
2023/12/29 10:51:39;;;;;;;9.33;2.60;;;11.50;99.90;;;;;;5055793;28;20180;-84
2023/12/29 10:54:06;;;;;;;7.67;1.90;;;11.50;99.90;;;;;;5055918;28;20175;-85
2023/12/29 10:56:32;;;;;;;8.83;2.57;;;11.40;99.90;;;;;;5054613;28;20181;-84
2023/12/29 10:59:05;;;;;;;6.57;2.20;;;11.40;99.90;;;;;;5055605;28;20179;-84
2023/12/29 11:01:34;;;;;;;8.87;2.80;;;11.40;99.90;;;;;;5054722;28;20177;-85
2023/12/29 11:04:05;;;;;;;8.63;2.60;;;11.40;99.90;;;;;;5054389;28;20171;-86
2023/12/29 11:06:47;;;;;;;9.23;2.47;;;11.50;99.90;;;;;;5054100;28;20176;-86
2023/12/29 11:09:13;;;;;;;13.17;2.33;;;11.50;99.90;;;;;;5054695;28;20214;-83
2023/12/29 11:11:38;;;;;;;9.93;2.63;;;11.50;99.90;;;;;;5054586;28;20182;-83
2023/12/29 11:14:05;;;;;;;6.57;2.13;;;11.60;99.90;;;;;;5060898;28;20176;-85
2023/12/29 11:16:31;;;;;;;8.57;2.43;;;11.50;99.90;;;;;;5073506;28;20689;-82
2023/12/29 11:18:58;;;;;;;10.47;2.83;;;11.50;99.90;;;;;;5074378;28;20183;-84
2023/12/29 11:21:27;;;;;;;8.10;2.33;;;11.60;99.90;;;;;;5073980;28;20260;-82
2023/12/29 11:23:53;;;;;;;10.37;2.33;;;11.60;99.90;;;;;;5073723;28;20327;-84
2023/12/29 11:26:20;;;;;;;6.70;2.07;;;11.60;99.90;;;;;;5075482;28;20243;-84
2023/12/29 11:28:49;;;;;;;10.37;2.50;;;11.60;99.90;;;;;;5073353;28;20205;-84
2023/12/29 11:31:19;;;;;;;9.07;2.30;;;11.60;99.90;;;;;;5074341;28;20177;-85
2023/12/29 11:33:52;;;;;;;9.37;2.33;;;11.70;99.90;;;;;;5074445;28;20170;-87
2023/12/29 11:36:28;;;;;;;9.00;1.97;;;11.70;99.90;;;;;;5074092;28;20181;-85
2023/12/29 11:39:15;;;;;;;12.17;2.53;;;11.70;99.90;;;;;;5072965;28;20824;-85
2023/12/29 11:41:52;;;;;;;7.13;2.13;;;11.70;99.90;;;;;;5073909;28;20273;-85
2023/12/29 11:44:27;;;;;;;8.83;2.50;;;11.70;99.90;;;;;;5073199;28;20700;-85
2023/12/29 11:46:53;;;;;;;8.60;2.27;;;11.80;99.90;;;;;;5073707;28;20180;-84
2023/12/29 11:49:19;;;;;;;9.97;2.30;;;11.70;99.90;;;;;;5071869;28;20314;-83
2023/12/29 11:51:49;;;;;;;8.90;2.67;;;11.70;99.90;;;;;;5071908;28;20175;-82
2023/12/29 11:54:26;;;;;;;7.60;2.30;;;11.70;99.90;;;;;;5073888;28;20184;-85
2023/12/29 11:56:53;;;;;;;8.37;3.17;;;11.80;99.90;;;;;;5067875;28;20204;-85
2023/12/29 11:59:20;;;;;;;9.43;2.40;;;11.80;99.90;;;;;;5063106;28;20630;-83
2023/12/29 12:01:50;;;;;;;4.07;2.00;;;11.80;99.90;;;;;;5072456;28;20222;-84
2023/12/29 12:04:40;;;;;;;5.93;2.43;;;11.80;99.90;;;;;;5071645;28;20587;-83
2023/12/29 12:07:07;;;;;;;6.17;2.33;;;11.80;99.90;;;;;;5072858;28;20637;-85
2023/12/29 12:09:34;;;;;;;9.87;2.73;;;11.80;99.90;;;;;;5069411;28;20571;-86
2023/12/29 12:12:05;;;;;;;12.70;3.57;;;11.70;99.90;;;;;;5068052;28;20216;-85
2023/12/29 12:14:53;;;;;;;11.40;3.23;;;11.70;99.90;;;;;;5072488;28;20619;-83
2023/12/29 12:17:29;;;;;;;8.87;2.40;;;11.50;99.90;;;;;;5072506;28;20180;-86
2023/12/29 12:20:06;;;;;;;8.70;2.20;;;11.60;99.90;;;;;;5065221;28;20196;-84
2023/12/29 12:22:32;;;;;;;5.83;2.10;;;11.50;99.90;;;;;;5061583;28;20175;-84
2023/12/29 12:24:59;;;;;;;9.73;2.43;;;11.60;99.90;;;;;;5061541;28;20248;-82
2023/12/29 12:27:29;;;;;;;7.30;2.80;;;11.40;99.90;;;;;;5064696;28;20544;-84
2023/12/29 12:29:58;;;;;;;10.13;3.10;;;11.50;99.90;;;;;;5063562;28;20291;-86
2023/12/29 12:32:28;;;;;;;6.83;2.43;;;11.50;99.90;;;;;;5071113;28;20180;-84
2023/12/29 12:34:55;;;;;;;11.83;2.60;;;11.50;99.90;;;;;;5073083;28;20173;-84
2023/12/29 12:37:28;;;;;;;9.57;2.43;;;11.60;99.90;;;;;;5074615;28;20572;-85
2023/12/29 12:39:54;;;;;;;9.03;2.17;;;11.60;99.90;;;;;;5070792;28;20172;-86
2023/12/29 12:42:21;;;;;;;8.17;2.50;;;11.50;99.90;;;;;;5060768;28;20181;-86